Thursday, December 18, 2014
03:59 UTC
  |  Log In   |  Register Free
Airport Search:

Pike County-Hatcher Field Airport
(KPBX)

Pike County-Hatcher Field Airport Diagram
No Airport Diagram Available

FAA data valid effective November 13, 2014 - January 08, 2015 (unless otherwise noted).

 
 
 
 
 
 
 
 
 
 
 
 
 
 

Current Aviation Weather for Pike County-Hatcher Field Airport (KPBX)

The most recent METAR observation for KPBX was updated at: 0334
METAR Summary (Translated METAR)
KPBX
180315Z AUTO 00000KT 10SM OVC021 00/M03 A3021 RMK AO2 T10051028
KSJS
180335Z AUTO 00000KT 10SM OVC024 M01/M03 A3022 RMK AO2 T10101029
(11.8 nm NW from KPBX)
KLNP
180315Z AUTO 29003KT 10SM CLR 00/M02 A3016 RMK AO2
(34.5 nm SE from KPBX)
TAF Summary (Translated TAF)
KSJS
(46.1 nm NW from KLNP)
180325Z 1803/1824 VRB03KT P6SM BKN025 FM180600 VRB03KT P6SM SCT025 SCT060 FM181200 VRB03KT P6SM BKN060 FM181400 VRB03KT P6SM BKN030 OVC060
  Airport Weather Conditions for KPBX

Current weather conditions are
not available for PBX


The nearest NOAA weather station
is at SJS, (11.8 nm NW from PBX)
  
 Current Weather at SJS
31° F
Fair
Southwest winds at 3.5 mph
SJS NOAA Radar

Pressure: 30.22 in
Humidity: 83%
Wind: Southwest at 3.5 MPH (3 KT)
Dew Point: 26.6°F
Visibility: 10.00 mi


Airport Weather Forecast for KPBX

Translated METAR and TAF for KLNP
Translated METAR for KLNP (0400 UTC 18 December 2014)
found at http://aviationweather.gov/adds/metars/
 
METAR text: KLNP 180335Z AUTO 30005KT 10SM CLR 00/M01 A3015 RMK AO2
Conditions at: KLNP (WISE/LONESOME PI, VA, US) observed 0335 UTC 18 December 2014
Temperature: 0.0°C (32°F)
Dewpoint: -1.0°C (30°F) [RH = 93%]
Pressure (altimeter): 30.15 inches Hg (1021.1 mb)
Winds: from the WNW (300 degrees) at 6 MPH (5 knots; 2.6 m/s)
Visibility: 10 or more miles (16+ km)
Ceiling: at least 12,000 feet AGL
Clouds: sky clear below 12,000 feet AGL
Weather: automated observation with no human augmentation;
there may or may not be significant weather present at this time
Translated TAF for KLNP

There is no translated TAF available for this airport

Find All Airport Services Find A Hotel Find A Rental Car Find A Golf Course Find A Restaurant $100 Hamburger



FBO's on the Field
FBO Company Facility Photos Services Transportation Aviation Fuel Prices: Prices include tax
Catering Weather Repair Courtesy Rental Type 100LL JetA JetA+ MOGAS 8087
 
Pikeville-Pike Airport

This FBO has not yet been rated
FS:Shell
Last Updated: Nov-24
Login to update fuel prices
SS:
Contact Pikeville-Pike AirportMore FBO Information
 
Add another FBO Facility Photos Catering Weather Repair Courtesy Rental Type 100LL JetA JetA+ MOGAS 8087
Services Transportation Aviation Fuel Prices: Prices include tax


model-print
model-print
model-print
model-print